sensor_id;sensor_type;location;lat;lon;timestamp;temperature;humidity
31687;DHT22;18285;51.330;4.946;2024-03-23T00:54:34;26.00;36.70
31687;DHT22;18285;51.330;4.946;2024-03-23T01:18:44;26.00;37.20
31687;DHT22;18285;51.330;4.946;2024-03-23T01:43:01;25.40;37.60
31687;DHT22;18285;51.330;4.946;2024-03-23T02:07:14;25.90;36.40
31687;DHT22;18285;51.330;4.946;2024-03-23T02:31:25;26.00;35.70
31687;DHT22;18285;51.330;4.946;2024-03-23T02:55:35;26.10;35.30
31687;DHT22;18285;51.330;4.946;2024-03-23T03:19:46;26.00;35.00
31687;DHT22;18285;51.330;4.946;2024-03-23T03:43:57;25.80;35.00
31687;DHT22;18285;51.330;4.946;2024-03-23T04:08:11;25.70;35.20
31687;DHT22;18285;51.330;4.946;2024-03-23T04:32:22;25.50;35.50
31687;DHT22;18285;51.330;4.946;2024-03-23T04:56:33;25.40;35.40
31687;DHT22;18285;51.330;4.946;2024-03-23T05:20:43;25.30;34.70
31687;DHT22;18285;51.330;4.946;2024-03-23T05:44:54;25.20;34.20
31687;DHT22;18285;51.330;4.946;2024-03-23T06:09:05;25.00;33.80
31687;DHT22;18285;51.330;4.946;2024-03-23T06:33:16;24.90;33.50
31687;DHT22;18285;51.330;4.946;2024-03-23T07:21:39;24.50;33.40
31687;DHT22;18285;51.330;4.946;2024-03-23T07:45:52;24.50;33.40
31687;DHT22;18285;51.330;4.946;2024-03-23T08:10:06;24.30;33.90
31687;DHT22;18285;51.330;4.946;2024-03-23T08:34:17;24.30;33.80
31687;DHT22;18285;51.330;4.946;2024-03-23T08:58:28;24.20;34.70
31687;DHT22;18285;51.330;4.946;2024-03-23T09:47:15;24.10;34.50
31687;DHT22;18285;51.330;4.946;2024-03-23T10:11:26;24.10;36.30
31687;DHT22;18285;51.330;4.946;2024-03-23T10:35:38;23.90;33.90
31687;DHT22;18285;51.330;4.946;2024-03-23T10:59:49;23.60;34.50
31687;DHT22;18285;51.330;4.946;2024-03-23T11:24:15;23.70;33.00
31687;DHT22;18285;51.330;4.946;2024-03-23T11:48:26;23.50;34.90
31687;DHT22;18285;51.330;4.946;2024-03-23T12:12:37;23.50;34.60
31687;DHT22;18285;51.330;4.946;2024-03-23T12:36:48;23.50;35.20
31687;DHT22;18285;51.330;4.946;2024-03-23T13:00:59;23.60;35.00
31687;DHT22;18285;51.330;4.946;2024-03-23T13:25:09;23.60;34.40
31687;DHT22;18285;51.330;4.946;2024-03-23T13:49:31;23.60;33.30
31687;DHT22;18285;51.330;4.946;2024-03-23T14:13:42;23.50;34.10
31687;DHT22;18285;51.330;4.946;2024-03-23T14:37:53;23.40;32.50
31687;DHT22;18285;51.330;4.946;2024-03-23T15:02:04;23.40;33.60
31687;DHT22;18285;51.330;4.946;2024-03-23T15:26:15;23.40;33.10
31687;DHT22;18285;51.330;4.946;2024-03-23T15:50:26;23.50;33.30
31687;DHT22;18285;51.330;4.946;2024-03-23T16:14:37;23.40;32.10
31687;DHT22;18285;51.330;4.946;2024-03-23T16:38:48;23.40;34.10
31687;DHT22;18285;51.330;4.946;2024-03-23T17:02:58;23.50;33.10
31687;DHT22;18285;51.330;4.946;2024-03-23T17:27:09;23.40;33.00
31687;DHT22;18285;51.330;4.946;2024-03-23T17:51:20;23.50;32.90
31687;DHT22;18285;51.330;4.946;2024-03-23T18:15:31;23.50;31.40
31687;DHT22;18285;51.330;4.946;2024-03-23T18:39:42;23.40;33.50
31687;DHT22;18285;51.330;4.946;2024-03-23T19:03:52;23.30;33.80
31687;DHT22;18285;51.330;4.946;2024-03-23T19:28:03;23.20;34.10
31687;DHT22;18285;51.330;4.946;2024-03-23T19:52:14;23.10;32.90
31687;DHT22;18285;51.330;4.946;2024-03-23T20:16:24;23.20;32.70
31687;DHT22;18285;51.330;4.946;2024-03-23T20:40:35;23.10;32.90
31687;DHT22;18285;51.330;4.946;2024-03-23T21:04:46;22.90;34.80
31687;DHT22;18285;51.330;4.946;2024-03-23T21:28:56;23.40;40.30
31687;DHT22;18285;51.330;4.946;2024-03-23T21:53:07;24.10;40.80
31687;DHT22;18285;51.330;4.946;2024-03-23T22:17:17;24.70;41.90
31687;DHT22;18285;51.330;4.946;2024-03-23T22:41:31;25.50;41.00
31687;DHT22;18285;51.330;4.946;2024-03-23T23:05:41;26.30;38.00
31687;DHT22;18285;51.330;4.946;2024-03-23T23:29:52;26.80;36.60
31687;DHT22;18285;51.330;4.946;2024-03-23T23:54:03;26.90;38.50
